createdAt,value
2023-04-02T00:01:49.955Z,99508.42
2023-04-02T00:04:26.561Z,99517.31
2023-04-02T00:07:19.113Z,99519.39
2023-04-02T00:09:49.955Z,99522.13
2023-04-02T00:12:22.360Z,99523.30
2023-04-02T00:14:58.038Z,99528.13
2023-04-02T00:17:28.772Z,99533.21
2023-04-02T00:20:02.469Z,99546.16
2023-04-02T00:22:34.426Z,99545.09
2023-04-02T00:25:14.751Z,99544.90
2023-04-02T00:27:45.768Z,99551.30
2023-04-02T00:30:17.348Z,99551.86
2023-04-02T00:32:49.005Z,99555.88
2023-04-02T00:35:24.404Z,99555.32
2023-04-02T00:37:56.161Z,99561.48
2023-04-02T00:40:30.414Z,99570.69
2023-04-02T00:43:04.347Z,99578.17
2023-04-02T00:45:39.476Z,99577.94
2023-04-02T00:48:29.282Z,99582.92
2023-04-02T00:51:04.933Z,99590.34
2023-04-02T00:53:38.099Z,99595.48
2023-04-02T00:56:19.110Z,99599.23
2023-04-02T00:58:54.425Z,99603.80
2023-04-02T01:01:28.415Z,99606.17
2023-04-02T01:04:01.448Z,99610.30
2023-04-02T01:06:35.716Z,99618.20
2023-04-02T01:09:29.959Z,99623.67
2023-04-02T01:12:37.993Z,99628.06
2023-04-02T01:15:15.419Z,99638.92
2023-04-02T01:18:01.814Z,99637.88
2023-04-02T01:21:01.973Z,99643.71
2023-04-02T01:23:37.586Z,99642.41
2023-04-02T01:26:15.975Z,99647.09
2023-04-02T01:29:01.998Z,99649.23
2023-04-02T01:31:34.368Z,99653.15
2023-04-02T01:34:09.851Z,99658.66
2023-04-02T01:36:47.169Z,99667.77
2023-04-02T01:39:28.586Z,99678.69
2023-04-02T01:42:09.246Z,99689.02
2023-04-02T01:44:44.112Z,99694.12
2023-04-02T01:47:16.867Z,99699.31
2023-04-02T01:49:48.877Z,99711.61
2023-04-02T01:52:27.616Z,99718.75
2023-04-02T01:54:57.678Z,99721.88
2023-04-02T01:57:30.016Z,99727.88
2023-04-02T02:00:08.212Z,99736.31
2023-04-02T02:03:00.975Z,99739.79
2023-04-02T02:05:33.014Z,99745.56
2023-04-02T02:08:04.453Z,99746.48
2023-04-02T02:10:40.884Z,99750.63
2023-04-02T02:13:16.853Z,99753.54
2023-04-02T02:15:47.813Z,99756.22
2023-04-02T02:18:23.297Z,99762.33
2023-04-02T02:20:55.929Z,99760.10
2023-04-02T02:23:25.940Z,99769.02
2023-04-02T02:25:57.416Z,99779.91
2023-04-02T02:28:32.641Z,99783.52
2023-04-02T02:31:06.610Z,99786.59
2023-04-02T02:33:42.731Z,99790.86
2023-04-02T02:36:22.866Z,99794.98
2023-04-02T02:39:02.072Z,99802.84
2023-04-02T02:41:44.205Z,99804.79
2023-04-02T02:44:20.677Z,99808.69
2023-04-02T02:46:54.677Z,99813.04
2023-04-02T02:49:31.498Z,99816.14
2023-04-02T02:52:10.973Z,99823.79
2023-04-02T02:54:51.121Z,99821.17
2023-04-02T02:57:28.730Z,99831.05
2023-04-02T03:00:02.237Z,99832.58
2023-04-02T03:02:36.818Z,99843.58
2023-04-02T03:05:10.972Z,99848.10
2023-04-02T03:07:42.569Z,99849.08
2023-04-02T03:10:20.573Z,99851.63
2023-04-02T03:12:57.425Z,99865.43
2023-04-02T03:15:36.623Z,99867.40
2023-04-02T03:18:13.365Z,99879.30
2023-04-02T03:20:49.984Z,99880.39
2023-04-02T03:23:25.711Z,99882.11
2023-04-02T03:26:02.844Z,99894.27
2023-04-02T03:28:38.518Z,99898.40
2023-04-02T03:31:15.971Z,99904.38
2023-04-02T03:33:51.495Z,99907.46
2023-04-02T03:36:28.520Z,99915.25
2023-04-02T03:39:09.989Z,99912.34
2023-04-02T03:41:46.138Z,99926.23
2023-04-02T03:44:27.303Z,99927.63
2023-04-02T03:47:03.638Z,99943.98
2023-04-02T03:49:40.176Z,99946.58
2023-04-02T03:52:15.041Z,99951.48
2023-04-02T03:54:53.822Z,99954.48
2023-04-02T03:57:32.495Z,99959.59
2023-04-02T04:00:09.235Z,99964.25
2023-04-02T04:03:05.003Z,99970.29
2023-04-02T04:05:40.369Z,99979.02
2023-04-02T04:08:18.797Z,99982.77
2023-04-02T04:10:54.963Z,99989.58
2023-04-02T04:13:36.475Z,99994.45
2023-04-02T04:16:12.001Z,100000.48
2023-04-02T04:18:51.872Z,100011.99
2023-04-02T04:21:31.127Z,100018.42
2023-04-02T04:24:21.772Z,100021.27
2023-04-02T04:26:58.556Z,100025.41
2023-04-02T04:29:45.691Z,100034.54
2023-04-02T04:32:32.028Z,100041.23
2023-04-02T04:35:17.487Z,100046.80
2023-04-02T04:37:53.646Z,100049.98
2023-04-02T04:40:29.785Z,100058.70
2023-04-02T04:43:05.554Z,100068.11
2023-04-02T04:45:46.029Z,100075.67
2023-04-02T04:48:22.654Z,100079.40
2023-04-02T04:50:59.398Z,100088.45
2023-04-02T04:53:31.784Z,100097.52
2023-04-02T04:56:18.454Z,100097.04
2023-04-02T04:58:55.103Z,100101.00
2023-04-02T05:01:32.536Z,100112.55
2023-04-02T05:04:11.500Z,100111.20
2023-04-02T05:06:51.045Z,100119.33
2023-04-02T05:09:28.437Z,100130.98
2023-04-02T05:12:08.234Z,100135.92
2023-04-02T05:14:43.582Z,100142.71
2023-04-02T05:17:21.998Z,100147.38
2023-04-02T05:19:57.909Z,100150.35
2023-04-02T05:22:38.886Z,100154.73
2023-04-02T05:25:21.246Z,100163.69
2023-04-02T05:27:58.125Z,100170.13
2023-04-02T05:30:54.629Z,100175.05
2023-04-02T05:33:28.322Z,100181.40
2023-04-02T05:36:04.530Z,100188.56
2023-04-02T05:38:40.201Z,100200.20
2023-04-02T05:41:22.386Z,100207.65
2023-04-02T05:44:00.883Z,100212.02
2023-04-02T05:46:36.100Z,100219.70
2023-04-02T05:49:11.126Z,100223.61
2023-04-02T05:51:47.089Z,100229.66
2023-04-02T05:54:25.357Z,100234.09
2023-04-02T05:57:04.717Z,100244.55
2023-04-02T05:59:41.874Z,100243.70
2023-04-02T06:02:24.031Z,100246.56
2023-04-02T06:05:01.201Z,100247.96
2023-04-02T06:07:42.922Z,100255.63
2023-04-02T06:10:20.674Z,100261.11
2023-04-02T06:13:03.948Z,100265.06
2023-04-02T06:15:41.709Z,100274.72
2023-04-02T06:18:20.788Z,100279.62
2023-04-02T06:21:02.144Z,100285.92
2023-04-02T06:23:50.071Z,100289.24
2023-04-02T06:26:28.964Z,100292.73
2023-04-02T06:29:06.999Z,100297.20
2023-04-02T06:31:42.657Z,100302.04
2023-04-02T06:34:18.922Z,100302.63
2023-04-02T06:37:02.469Z,100312.26
2023-04-02T06:39:34.337Z,100318.73
2023-04-02T06:42:13.541Z,100315.14
2023-04-02T06:44:53.935Z,100325.48
2023-04-02T06:47:47.270Z,100324.67
2023-04-02T06:50:31.167Z,100338.44
2023-04-02T06:53:08.447Z,100335.91
2023-04-02T06:55:47.737Z,100340.80
2023-04-02T06:58:22.682Z,100348.59
2023-04-02T07:00:54.695Z,100356.30
2023-04-02T07:03:52.211Z,100363.70
2023-04-02T07:06:43.217Z,100373.52
2023-04-02T07:09:15.891Z,100375.42
2023-04-02T07:11:50.520Z,100383.73
2023-04-02T07:14:22.480Z,100384.27
2023-04-02T07:16:54.016Z,100387.89
2023-04-02T07:19:25.610Z,100392.85
2023-04-02T07:22:00.054Z,100394.61
2023-04-02T07:24:36.210Z,100395.27
2023-04-02T07:27:07.080Z,100401.41
2023-04-02T07:29:42.613Z,100403.42
2023-04-02T07:32:14.448Z,100408.73
2023-04-02T07:34:45.481Z,100418.12
2023-04-02T07:37:17.135Z,100419.77
2023-04-02T07:39:47.885Z,100421.45
2023-04-02T07:42:18.548Z,100428.98
2023-04-02T07:44:49.370Z,100438.30
2023-04-02T07:47:20.136Z,100439.89
2023-04-02T07:49:50.990Z,100443.21
2023-04-02T07:52:22.256Z,100448.80
2023-04-02T07:54:53.237Z,100452.50
2023-04-02T07:57:23.983Z,100458.83
2023-04-02T07:59:56.801Z,100463.42
2023-04-02T08:02:26.078Z,100467.80
2023-04-02T08:04:57.090Z,100469.15
2023-04-02T08:07:29.950Z,100473.20
2023-04-02T08:10:00.663Z,100481.91
2023-04-02T08:12:31.549Z,100487.52
2023-04-02T08:15:02.179Z,100489.23
2023-04-02T08:17:33.764Z,100497.73
2023-04-02T08:20:06.653Z,100501.18
2023-04-02T08:22:37.703Z,100506.33
2023-04-02T08:25:10.763Z,100514.80
2023-04-02T08:27:42.138Z,100519.94
2023-04-02T08:30:17.140Z,100519.90
2023-04-02T08:32:48.287Z,100523.02
2023-04-02T08:35:19.803Z,100529.55
2023-04-02T08:37:50.593Z,100526.64
2023-04-02T08:40:26.791Z,100538.63
2023-04-02T08:43:23.729Z,100540.57
2023-04-02T08:46:01.783Z,100550.83
2023-04-02T08:48:34.665Z,100561.58
2023-04-02T08:51:07.405Z,100563.02
2023-04-02T08:53:40.020Z,100569.37
2023-04-02T08:56:19.043Z,100565.48
2023-04-02T08:58:52.079Z,100570.61
2023-04-02T09:01:34.856Z,100568.52
2023-04-02T09:04:14.644Z,100576.95
2023-04-02T09:06:46.440Z,100577.73
2023-04-02T09:09:20.813Z,100576.55
2023-04-02T09:11:56.438Z,100577.64
2023-04-02T09:14:37.705Z,100592.28
2023-04-02T09:17:21.549Z,100595.34
2023-04-02T09:20:09.806Z,100605.33
2023-04-02T09:22:40.759Z,100605.67
2023-04-02T09:25:16.183Z,100609.56
2023-04-02T09:27:50.884Z,100616.96
2023-04-02T09:30:39.801Z,100621.21
2023-04-02T09:33:11.001Z,100625.30
2023-04-02T09:35:58.661Z,100635.14
2023-04-02T09:38:31.777Z,100635.31
2023-04-02T09:41:07.388Z,100642.46
2023-04-02T09:43:39.671Z,100648.79
2023-04-02T09:46:24.670Z,100656.48
2023-04-02T09:49:01.095Z,100659.07
2023-04-02T09:51:35.223Z,100667.05
2023-04-02T09:54:17.250Z,100666.59
2023-04-02T09:59:46.023Z,100669.75
2023-04-02T10:02:29.915Z,100672.34
2023-04-02T10:05:07.185Z,100682.34
2023-04-02T10:07:41.372Z,100686.64
2023-04-02T10:10:25.084Z,100690.02
2023-04-02T10:13:03.634Z,100697.52
2023-04-02T10:15:38.722Z,100696.99
2023-04-02T10:18:17.610Z,100696.87
2023-04-02T10:20:51.430Z,100702.64
2023-04-02T10:23:26.020Z,100711.43
2023-04-02T10:26:09.961Z,100711.09
2023-04-02T10:28:52.552Z,100716.95
2023-04-02T10:31:26.552Z,100719.98
2023-04-02T10:34:02.510Z,100724.78
2023-04-02T10:36:49.257Z,100722.63
2023-04-02T10:39:25.161Z,100729.00
2023-04-02T10:42:04.910Z,100733.63
2023-04-02T10:44:51.896Z,100736.13
2023-04-02T10:47:35.115Z,100735.86
2023-04-02T10:50:25.581Z,100744.18
2023-04-02T10:53:09.597Z,100747.79
2023-04-02T10:55:56.221Z,100751.13
2023-04-02T10:58:31.345Z,100753.98
2023-04-02T11:01:09.023Z,100758.39
2023-04-02T11:03:44.780Z,100756.44
2023-04-02T11:06:22.199Z,100764.27
2023-04-02T11:08:58.788Z,100768.75
2023-04-02T11:11:33.409Z,100770.16
2023-04-02T11:14:11.317Z,100774.33
2023-04-02T11:16:44.879Z,100772.74
2023-04-02T11:19:33.592Z,100778.88
2023-04-02T11:22:06.899Z,100781.67
2023-04-02T11:24:46.847Z,100785.35
2023-04-02T11:27:26.775Z,100790.53
2023-04-02T11:30:06.662Z,100790.02
2023-04-02T11:32:42.550Z,100796.77
2023-04-02T11:35:37.219Z,100800.04
2023-04-02T11:38:39.329Z,100796.70
2023-04-02T11:41:10.455Z,100797.89
2023-04-02T11:44:00.952Z,100807.69
2023-04-02T11:46:52.816Z,100808.63
2023-04-02T11:49:57.561Z,100809.00
2023-04-02T11:52:31.844Z,100815.02
2023-04-02T11:55:22.463Z,100815.02
2023-04-02T11:58:28.998Z,100819.73
2023-04-02T12:01:36.180Z,100827.08
2023-04-02T12:04:29.838Z,100827.61
2023-04-02T12:07:19.492Z,100830.68
2023-04-02T12:09:53.714Z,100837.20
2023-04-02T12:12:33.340Z,100836.23
2023-04-02T12:15:07.729Z,100835.84
2023-04-02T12:17:40.382Z,100841.76
2023-04-02T12:20:29.427Z,100832.86
2023-04-02T12:23:00.956Z,100837.23
2023-04-02T12:25:34.109Z,100839.33
2023-04-02T12:28:18.088Z,100844.09
2023-04-02T12:30:49.905Z,100847.11
2023-04-02T12:33:37.634Z,100851.22
2023-04-02T12:36:19.112Z,100857.33
2023-04-02T12:38:52.556Z,100856.52
2023-04-02T12:41:27.205Z,100863.09
2023-04-02T12:44:02.581Z,100865.77
2023-04-02T12:46:35.663Z,100864.98
2023-04-02T12:49:10.090Z,100866.05
2023-04-02T12:51:41.835Z,100867.05
2023-04-02T12:54:17.461Z,100865.10
2023-04-02T12:56:48.875Z,100872.41
2023-04-02T12:59:33.697Z,100872.63
2023-04-02T13:02:18.040Z,100874.34
2023-04-02T13:04:54.966Z,100878.40
2023-04-02T13:07:29.491Z,100883.36
2023-04-02T13:10:09.004Z,100882.05
2023-04-02T13:12:42.379Z,100890.81
2023-04-02T13:15:25.494Z,100891.13
2023-04-02T13:18:19.095Z,100896.76
2023-04-02T13:20:59.602Z,100897.70
2023-04-02T13:23:38.334Z,100903.03
2023-04-02T13:26:19.649Z,100906.92
2023-04-02T13:29:00.973Z,100913.98
2023-04-02T13:31:33.754Z,100914.91
2023-04-02T13:34:03.614Z,100915.02
2023-04-02T13:36:37.598Z,100920.68
2023-04-02T13:39:08.894Z,100920.95
2023-04-02T13:41:44.115Z,100922.95
2023-04-02T13:44:26.726Z,100929.39
2023-04-02T13:46:59.243Z,100930.75
2023-04-02T13:49:31.199Z,100930.25
2023-04-02T13:52:05.339Z,100938.89
2023-04-02T13:54:44.562Z,100941.89
2023-04-02T13:57:15.698Z,100949.67
2023-04-02T13:59:46.829Z,100947.32
2023-04-02T14:02:23.086Z,100962.92
2023-04-02T14:04:59.873Z,100962.83
2023-04-02T14:07:48.103Z,100963.65
2023-04-02T14:10:31.102Z,100963.61
2023-04-02T14:13:17.667Z,100965.30
2023-04-02T14:16:16.864Z,100963.72
2023-04-02T14:19:05.046Z,100971.31
2023-04-02T14:21:53.155Z,100977.28
2023-04-02T14:24:34.178Z,100975.54
2023-04-02T14:27:28.421Z,100979.66
2023-04-02T14:30:12.396Z,100983.52
2023-04-02T14:33:01.511Z,100984.59
2023-04-02T14:35:38.671Z,100989.04
2023-04-02T14:38:20.120Z,100989.50
2023-04-02T14:40:55.949Z,100994.86
2023-04-02T14:43:31.895Z,100998.00
2023-04-02T14:46:04.616Z,100997.17
2023-04-02T14:48:43.749Z,100997.89
2023-04-02T14:51:22.809Z,101001.73
2023-04-02T14:54:04.429Z,101004.61
2023-04-02T14:56:40.645Z,101003.08
2023-04-02T14:59:29.507Z,101006.39
2023-04-02T15:02:04.957Z,101008.61
2023-04-02T15:04:42.456Z,100996.66
2023-04-02T15:07:20.167Z,101010.02
2023-04-02T15:09:56.514Z,101010.02
2023-04-02T15:12:32.145Z,101011.15
2023-04-02T15:15:15.315Z,101003.85
2023-04-02T15:17:46.513Z,101007.00
2023-04-02T15:20:20.548Z,101008.38
2023-04-02T15:23:03.334Z,101010.46
2023-04-02T15:25:46.794Z,101012.81
2023-04-02T15:28:28.190Z,101019.65
2023-04-02T15:31:04.573Z,101023.39
2023-04-02T15:33:42.654Z,101023.15
2023-04-02T15:36:42.757Z,101027.42
2023-04-02T15:39:27.537Z,101026.22
2023-04-02T15:42:11.617Z,101029.91
2023-04-02T15:44:49.564Z,101031.84
2023-04-02T15:47:25.966Z,101035.08
2023-04-02T15:50:06.309Z,101044.16
2023-04-02T15:52:47.834Z,101045.55
2023-04-02T15:55:33.964Z,101046.74
2023-04-02T15:58:30.171Z,101049.88
2023-04-02T16:01:13.238Z,101050.80
2023-04-02T16:04:10.774Z,101050.02
2023-04-02T16:07:03.661Z,101050.73
2023-04-02T16:09:49.492Z,101060.08
2023-04-02T16:12:25.508Z,101063.11
2023-04-02T16:15:05.836Z,101068.40
2023-04-02T16:17:45.159Z,101071.14
2023-04-02T16:20:25.187Z,101071.05
2023-04-02T16:23:06.390Z,101078.69
2023-04-02T16:25:53.669Z,101077.20
2023-04-02T16:28:25.618Z,101080.80
2023-04-02T16:31:05.835Z,101082.17
2023-04-02T16:33:49.528Z,101083.65
2023-04-02T16:36:33.157Z,101088.95
2023-04-02T16:39:12.100Z,101093.70
2023-04-02T16:41:51.407Z,101098.83
2023-04-02T16:44:41.917Z,101098.49
2023-04-02T16:47:39.044Z,101101.94
2023-04-02T16:50:23.205Z,101104.35
2023-04-02T16:53:02.480Z,101108.84
2023-04-02T16:55:44.292Z,101112.01
2023-04-02T16:58:35.314Z,101112.91
2023-04-02T17:01:11.709Z,101113.42
2023-04-02T17:04:01.671Z,101116.16
2023-04-02T17:06:43.484Z,101117.03
2023-04-02T17:09:26.503Z,101121.66
2023-04-02T17:12:04.408Z,101125.44
2023-04-02T17:14:42.612Z,101128.52
2023-04-02T17:17:16.059Z,101132.33
2023-04-02T17:19:48.788Z,101137.52
2023-04-02T17:22:22.049Z,101139.29
2023-04-02T17:24:56.906Z,101138.36
2023-04-02T17:27:30.315Z,101141.56
2023-04-02T17:30:06.324Z,101143.27
2023-04-02T17:32:37.495Z,101141.52
2023-04-02T17:35:22.278Z,101145.71
2023-04-02T17:38:01.072Z,101150.59
2023-04-02T17:40:37.386Z,101148.23
2023-04-02T17:43:19.028Z,101150.08
2023-04-02T17:45:52.992Z,101149.20
2023-04-02T17:48:32.169Z,101150.31
2023-04-02T17:51:16.554Z,101148.30
2023-04-02T17:54:01.187Z,101150.12
2023-04-02T17:56:47.600Z,101151.33
2023-04-02T17:59:32.955Z,101159.30
2023-04-02T18:02:21.933Z,101169.80
2023-04-02T18:05:01.738Z,101170.45
2023-04-02T18:07:47.196Z,101172.55
2023-04-02T18:10:25.100Z,101172.77
2023-04-02T18:13:01.199Z,101176.00
2023-04-02T18:15:46.185Z,101174.34
2023-04-02T18:18:34.739Z,101180.71
2023-04-02T18:21:14.566Z,101186.48
2023-04-02T18:23:59.860Z,101193.02
2023-04-02T18:26:40.670Z,101191.42
2023-04-02T18:29:23.616Z,101196.69
2023-04-02T18:32:05.827Z,101199.42
2023-04-02T18:34:51.053Z,101201.61
2023-04-02T18:37:33.554Z,101204.02
2023-04-02T18:40:22.954Z,101204.47
2023-04-02T18:43:03.396Z,101213.31
2023-04-02T18:45:46.178Z,101220.96
2023-04-02T18:48:30.702Z,101218.62
2023-04-02T18:51:04.772Z,101224.66
2023-04-02T18:53:37.287Z,101222.42
2023-04-02T18:56:13.000Z,101230.04
2023-04-02T18:58:57.685Z,101234.83
2023-04-02T19:01:35.120Z,101236.72
2023-04-02T19:04:11.079Z,101240.76
2023-04-02T19:06:45.941Z,101245.23
2023-04-02T19:09:23.273Z,101250.61
2023-04-02T19:11:54.058Z,101249.86
2023-04-02T19:14:24.824Z,101250.28
2023-04-02T19:17:07.168Z,101254.91
2023-04-02T19:19:44.376Z,101256.27
2023-04-02T19:22:22.299Z,101257.70
2023-04-02T19:25:14.849Z,101258.77
2023-04-02T19:27:59.449Z,101262.81
2023-04-02T19:30:41.293Z,101261.30
2023-04-02T19:33:25.351Z,101271.15
2023-04-02T19:35:59.998Z,101272.17
2023-04-02T19:38:48.604Z,101278.55
2023-04-02T19:41:30.635Z,101275.75
2023-04-02T19:44:01.706Z,101276.59
2023-04-02T19:46:32.693Z,101281.88
2023-04-02T19:49:09.194Z,101278.52
2023-04-02T19:51:39.963Z,101280.29
2023-04-02T19:54:10.813Z,101282.27
2023-04-02T19:56:42.467Z,101286.16
2023-04-02T19:59:18.095Z,101287.66
2023-04-02T20:01:49.893Z,101288.88
2023-04-02T20:04:20.750Z,101290.98
2023-04-02T20:06:51.859Z,101291.77
2023-04-02T20:09:22.715Z,101294.45
2023-04-02T20:11:53.524Z,101292.66
2023-04-02T20:14:24.273Z,101291.91
2023-04-02T20:16:55.006Z,101292.77
2023-04-02T20:19:26.063Z,101296.15
2023-04-02T20:21:56.673Z,101301.30
2023-04-02T20:24:27.444Z,101305.16
2023-04-02T20:26:58.108Z,101304.66
2023-04-02T20:29:30.815Z,101306.43
2023-04-02T20:32:01.526Z,101306.98
2023-04-02T20:34:32.670Z,101311.05
2023-04-02T20:37:03.721Z,101314.63
2023-04-02T20:39:34.437Z,101314.02
2023-04-02T20:42:05.528Z,101320.88
2023-04-02T20:44:36.289Z,101317.77
2023-04-02T20:47:08.179Z,101325.61
2023-04-02T20:49:39.267Z,101331.81
2023-04-02T20:52:10.728Z,101331.33
2023-04-02T20:54:41.701Z,101332.70
2023-04-02T20:57:13.704Z,101332.84
2023-04-02T20:59:44.759Z,101336.36
2023-04-02T21:02:15.481Z,101339.96
2023-04-02T21:04:46.198Z,101343.85
2023-04-02T21:07:16.959Z,101342.54
2023-04-02T21:09:47.735Z,101340.64
2023-04-02T21:12:18.687Z,101343.73
2023-04-02T21:14:49.386Z,101343.64
2023-04-02T21:17:20.428Z,101345.45
2023-04-02T21:19:51.244Z,101351.48
2023-04-02T21:22:21.964Z,101347.92
2023-04-02T21:24:53.113Z,101353.52
2023-04-02T21:27:25.959Z,101354.21
2023-04-02T21:29:55.200Z,101356.30
2023-04-02T21:32:25.948Z,101358.07
2023-04-02T21:34:56.792Z,101359.31
2023-04-02T21:37:27.677Z,101359.31
2023-04-02T21:39:58.394Z,101360.55
2023-04-02T21:42:29.185Z,101360.90
2023-04-02T21:44:59.884Z,101361.69
2023-04-02T21:47:30.601Z,101363.70
2023-04-02T21:50:01.452Z,101365.60
2023-04-02T21:52:32.475Z,101367.44
2023-04-02T21:55:03.331Z,101366.52
2023-04-02T21:57:34.085Z,101369.45
2023-04-02T22:00:08.752Z,101372.88
2023-04-02T22:02:39.585Z,101375.40
2023-04-02T22:05:11.331Z,101377.42
2023-04-02T22:07:41.940Z,101379.49
2023-04-02T22:10:13.361Z,101382.40
2023-04-02T22:12:44.333Z,101384.88
2023-04-02T22:15:15.622Z,101388.75
2023-04-02T22:17:46.358Z,101393.05
2023-04-02T22:20:17.164Z,101389.73
2023-04-02T22:22:47.818Z,101391.57
2023-04-02T22:25:18.604Z,101394.64
2023-04-02T22:27:52.061Z,101396.73
2023-04-02T22:30:23.015Z,101392.89
2023-04-02T22:32:53.852Z,101398.80
2023-04-02T22:35:24.786Z,101397.60
2023-04-02T22:37:55.910Z,101397.77
2023-04-02T22:40:27.053Z,101399.63
2023-04-02T22:42:57.761Z,101402.82
2023-04-02T22:45:28.606Z,101407.48
2023-04-02T22:47:59.288Z,101408.78
2023-04-02T22:53:20.717Z,101417.91
2023-04-02T22:55:52.310Z,101419.80
2023-04-02T22:58:23.875Z,101420.16
2023-04-02T23:00:54.581Z,101423.20
2023-04-02T23:03:25.193Z,101422.44
2023-04-02T23:06:03.181Z,101427.70
2023-04-02T23:08:33.922Z,101432.99
2023-04-02T23:11:07.520Z,101432.10
2023-04-02T23:13:39.279Z,101431.91
2023-04-02T23:16:13.835Z,101433.33
2023-04-02T23:18:48.050Z,101439.95
2023-04-02T23:21:20.494Z,101441.04
2023-04-02T23:23:51.769Z,101428.05
2023-04-02T23:26:24.250Z,101442.23
2023-04-02T23:28:54.880Z,101443.98
2023-04-02T23:31:26.016Z,101446.23
2023-04-02T23:33:56.708Z,101443.50
2023-04-02T23:36:29.215Z,101446.38
2023-04-02T23:39:01.880Z,101446.86
2023-04-02T23:41:33.275Z,101443.67
2023-04-02T23:44:05.028Z,101447.66
2023-04-02T23:46:36.382Z,101448.83
2023-04-02T23:49:07.538Z,101447.23
2023-04-02T23:51:38.539Z,101448.08
2023-04-02T23:54:09.304Z,101446.70
2023-04-02T23:56:40.303Z,101444.42
2023-04-02T23:59:11.032Z,101447.90
